createdAt,value
2022-09-14T00:03:42.359Z,97763.85
2022-09-14T00:13:50.633Z,97757.67
2022-09-14T00:23:57.968Z,97760.13
2022-09-14T00:34:06.859Z,97744.76
2022-09-14T00:44:44.668Z,97730.55
2022-09-14T00:54:56.218Z,97727.59
2022-09-14T01:05:04.000Z,97722.23
2022-09-14T01:15:21.867Z,97721.64
2022-09-14T01:25:43.174Z,97721.95
2022-09-14T01:35:53.376Z,97713.89
2022-09-14T01:46:06.275Z,97695.38
2022-09-14T01:56:15.569Z,97685.34
2022-09-14T02:06:20.578Z,97689.59
2022-09-14T02:16:28.380Z,97671.40
2022-09-14T02:26:36.711Z,97665.44
2022-09-14T02:36:45.093Z,97662.45
2022-09-14T02:47:00.043Z,97648.50
2022-09-14T02:57:08.443Z,97644.39
2022-09-14T03:07:15.704Z,97641.85
2022-09-14T03:17:22.750Z,97639.35
2022-09-14T03:27:30.045Z,97644.13
2022-09-14T03:37:40.295Z,97657.79
2022-09-14T03:47:47.158Z,97646.34
2022-09-14T03:57:55.016Z,97641.70
2022-09-14T04:08:02.141Z,97644.93
2022-09-14T04:18:09.625Z,97648.70
2022-09-14T04:28:20.445Z,97644.30
2022-09-14T04:38:28.470Z,97639.59
2022-09-14T04:48:36.279Z,97645.38
2022-09-14T04:58:50.686Z,97650.77
2022-09-14T05:09:00.600Z,97651.17
2022-09-14T05:19:12.396Z,97650.38
2022-09-14T05:29:20.592Z,97648.11
2022-09-14T05:39:26.696Z,97653.52
2022-09-14T05:49:33.671Z,97647.68
2022-09-14T05:59:40.928Z,97645.08
2022-09-14T06:09:48.089Z,97649.20
2022-09-14T06:19:55.407Z,97645.52
2022-09-14T06:30:02.509Z,97654.67
2022-09-14T06:40:11.083Z,97666.33
2022-09-14T06:50:18.453Z,97677.21
2022-09-14T07:00:25.717Z,97683.35
2022-09-14T07:10:31.781Z,97682.77
2022-09-14T07:20:39.002Z,97683.83
2022-09-14T07:30:46.228Z,97678.33
2022-09-14T07:40:54.221Z,97673.77
2022-09-14T07:51:03.687Z,97675.42
2022-09-14T08:01:12.606Z,97674.02
2022-09-14T08:11:22.522Z,97673.58
2022-09-14T08:21:32.171Z,97669.52
2022-09-14T08:31:39.388Z,97661.18
2022-09-14T08:41:47.428Z,97654.20
2022-09-14T08:51:55.064Z,97656.71
2022-09-14T09:02:03.276Z,97651.69
2022-09-14T09:12:17.836Z,97649.96
2022-09-14T09:22:30.107Z,97645.63
2022-09-14T09:32:38.395Z,97648.89
2022-09-14T09:43:06.373Z,97649.96
2022-09-14T09:53:16.632Z,97646.54
2022-09-14T10:03:23.222Z,97652.48
2022-09-14T10:13:30.221Z,97663.04
2022-09-14T10:23:39.035Z,97655.61
2022-09-14T10:33:46.882Z,97647.35
2022-09-14T10:43:56.737Z,97641.77
2022-09-14T10:54:14.040Z,97644.27
2022-09-14T11:04:23.176Z,97637.48
2022-09-14T11:14:36.589Z,97633.02
2022-09-14T11:24:41.598Z,97630.41
2022-09-14T11:34:54.951Z,97616.58
2022-09-14T11:45:07.617Z,97602.86
2022-09-14T11:55:19.785Z,97590.17
2022-09-14T12:05:43.684Z,97586.65
2022-09-14T12:16:02.024Z,97588.39
2022-09-14T12:26:16.279Z,97591.10
2022-09-14T12:36:56.957Z,97589.73
2022-09-14T12:47:29.569Z,97585.95
2022-09-14T12:57:36.378Z,97573.62
2022-09-14T13:07:44.637Z,97569.61
2022-09-14T13:18:04.226Z,97569.89
2022-09-14T13:28:18.870Z,97558.66
2022-09-14T13:38:28.579Z,97553.20
2022-09-14T13:48:37.522Z,97524.88
2022-09-14T13:58:45.275Z,97521.09
2022-09-14T14:09:07.134Z,97512.27
2022-09-14T14:19:29.900Z,97498.04
2022-09-14T14:29:37.103Z,97500.48
2022-09-14T14:39:49.409Z,97510.11
2022-09-14T14:49:56.806Z,97511.45
2022-09-14T15:00:02.692Z,97506.55
2022-09-14T15:10:14.613Z,97500.55
2022-09-14T15:20:23.228Z,97492.39
2022-09-14T15:30:30.336Z,97481.14
2022-09-14T15:40:37.678Z,97476.20
2022-09-14T15:50:43.801Z,97471.73
2022-09-14T16:00:51.046Z,97464.60
2022-09-14T16:11:01.664Z,97461.88
2022-09-14T16:21:10.111Z,97464.45
2022-09-14T16:31:20.245Z,97470.89
2022-09-14T16:41:27.949Z,97463.88
2022-09-14T16:51:35.851Z,97461.60
2022-09-14T17:01:46.576Z,97449.38
2022-09-14T17:11:57.678Z,97440.38
2022-09-14T17:22:04.105Z,97445.61
2022-09-14T17:32:14.815Z,97447.93
2022-09-14T17:42:22.431Z,97463.86
2022-09-14T17:52:25.856Z,97457.11
2022-09-14T18:02:33.014Z,97446.97
2022-09-14T18:12:40.076Z,97453.66
2022-09-14T18:22:47.282Z,97446.27
2022-09-14T18:32:54.527Z,97439.65
2022-09-14T18:43:01.790Z,97437.70
2022-09-14T18:53:09.496Z,97432.13
2022-09-14T19:03:17.026Z,97423.41
2022-09-14T19:13:24.311Z,97414.98
2022-09-14T19:23:31.737Z,97400.67
2022-09-14T19:33:45.044Z,97390.37
2022-09-14T19:43:53.590Z,97378.36
2022-09-14T19:54:02.132Z,97389.27
2022-09-14T20:04:10.603Z,97394.30
2022-09-14T20:14:17.910Z,97379.32
2022-09-14T20:24:28.057Z,97375.64
2022-09-14T20:34:34.792Z,97380.16
2022-09-14T20:44:42.449Z,97387.77
2022-09-14T20:54:49.590Z,97381.27
2022-09-14T21:04:55.980Z,97370.16
2022-09-14T21:15:03.172Z,97362.61
2022-09-14T21:25:11.821Z,97369.11
2022-09-14T21:35:18.093Z,97349.41
2022-09-14T21:45:23.977Z,97341.80
2022-09-14T21:55:31.410Z,97320.38
2022-09-14T22:05:38.910Z,97307.02
2022-09-14T22:15:47.266Z,97297.15
2022-09-14T22:25:55.093Z,97281.70
2022-09-14T22:36:04.138Z,97283.23
2022-09-14T22:46:11.841Z,97280.42
2022-09-14T22:56:24.788Z,97277.58
2022-09-14T23:06:34.024Z,97274.82
2022-09-14T23:16:41.505Z,97262.00
2022-09-14T23:26:49.308Z,97264.64
2022-09-14T23:36:57.368Z,97245.66
2022-09-14T23:47:04.921Z,97232.70
2022-09-14T23:57:11.934Z,97216.64
